createdAt,value
2022-08-05T00:01:35.485Z,22.99
2022-08-05T00:04:03.805Z,22.79
2022-08-05T00:06:33.348Z,22.71
2022-08-05T00:09:02.913Z,22.62
2022-08-05T00:11:34.640Z,22.71
2022-08-05T00:14:12.014Z,22.68
2022-08-05T00:16:52.612Z,22.61
2022-08-05T00:19:19.706Z,22.61
2022-08-05T00:21:48.902Z,22.57
2022-08-05T00:24:16.099Z,22.60
2022-08-05T00:26:50.730Z,22.50
2022-08-05T00:29:18.808Z,22.46
2022-08-05T00:32:10.591Z,22.57
2022-08-05T00:34:54.614Z,22.53
2022-08-05T00:37:22.591Z,22.45
2022-08-05T00:39:58.076Z,22.29
2022-08-05T00:42:37.265Z,22.44
2022-08-05T00:45:08.852Z,22.52
2022-08-05T00:47:56.817Z,22.22
2022-08-05T00:50:25.696Z,22.22
2022-08-05T00:52:55.011Z,22.30
2022-08-05T00:55:22.671Z,22.34
2022-08-05T00:57:58.100Z,22.39
2022-08-05T01:00:30.730Z,22.31
2022-08-05T01:02:59.767Z,22.27
2022-08-05T01:05:27.466Z,22.11
2022-08-05T01:08:41.334Z,22.15
2022-08-05T01:10:51.719Z,22.12
2022-08-05T01:13:57.445Z,22.20
2022-08-05T01:16:34.463Z,22.08
2022-08-05T01:19:11.928Z,21.98
2022-08-05T01:22:18.817Z,22.15
2022-08-05T01:24:50.440Z,22.08
2022-08-05T01:27:25.796Z,22.08
2022-08-05T01:29:58.851Z,22.00
2022-08-05T01:32:27.968Z,21.91
2022-08-05T01:34:59.423Z,21.92
2022-08-05T01:37:32.844Z,22.20
2022-08-05T01:40:06.493Z,21.73
2022-08-05T01:42:36.603Z,21.83
2022-08-05T01:45:08.181Z,21.84
2022-08-05T01:47:39.201Z,21.84
2022-08-05T01:50:08.099Z,22.12
2022-08-05T01:52:44.070Z,21.93
2022-08-05T01:55:14.373Z,21.82
2022-08-05T01:58:29.944Z,21.76
2022-08-05T02:00:33.545Z,21.79
2022-08-05T02:03:28.900Z,21.81
2022-08-05T02:06:01.081Z,21.71
2022-08-05T02:08:31.643Z,21.79
2022-08-05T02:11:13.977Z,21.83
2022-08-05T02:13:58.267Z,21.80
2022-08-05T02:16:33.740Z,21.67
2022-08-05T02:19:11.866Z,21.70
2022-08-05T02:21:49.418Z,21.66
2022-08-05T02:24:23.148Z,21.60
2022-08-05T02:26:55.082Z,21.38
2022-08-05T02:29:59.116Z,21.54
2022-08-05T02:32:12.924Z,21.59
2022-08-05T02:34:54.990Z,21.52
2022-08-05T02:37:23.145Z,21.51
2022-08-05T02:39:51.506Z,21.48
2022-08-05T02:42:25.761Z,21.50
2022-08-05T02:44:53.247Z,21.44
2022-08-05T02:47:21.562Z,21.36
2022-08-05T02:49:49.255Z,21.38
2022-08-05T02:52:29.754Z,21.31
2022-08-05T02:54:58.570Z,21.41
2022-08-05T02:58:11.486Z,21.61
2022-08-05T03:00:16.392Z,21.41
2022-08-05T03:02:45.144Z,21.37
2022-08-05T03:05:13.694Z,21.38
2022-08-05T03:08:01.712Z,21.35
2022-08-05T03:10:28.893Z,21.36
2022-08-05T03:12:55.440Z,21.32
2022-08-05T03:15:24.692Z,21.32
2022-08-05T03:17:55.535Z,21.10
2022-08-05T03:20:23.700Z,21.19
2022-08-05T03:22:50.934Z,21.15
2022-08-05T03:25:32.879Z,21.09
2022-08-05T03:28:08.612Z,21.07
2022-08-05T03:30:36.719Z,21.13
2022-08-05T03:33:06.335Z,21.12
2022-08-05T03:35:41.241Z,21.13
2022-08-05T03:38:11.020Z,21.13
2022-08-05T03:40:48.537Z,21.09
2022-08-05T03:44:09.730Z,21.04
2022-08-05T03:46:04.021Z,20.91
2022-08-05T03:48:35.081Z,21.02
2022-08-05T03:52:48.274Z,21.05
2022-08-05T03:55:33.980Z,21.02
2022-08-05T03:57:41.684Z,20.95
2022-08-05T04:00:11.344Z,20.97
2022-08-05T04:02:45.119Z,20.84
2022-08-05T04:05:19.721Z,20.80
2022-08-05T04:07:53.024Z,20.85
2022-08-05T04:10:27.689Z,20.76
2022-08-05T04:12:55.485Z,20.73
2022-08-05T04:15:26.064Z,20.70
2022-08-05T04:17:57.216Z,20.65
2022-08-05T04:20:26.515Z,20.73
2022-08-05T04:22:53.036Z,20.66
2022-08-05T04:25:19.777Z,20.64
2022-08-05T04:28:11.388Z,20.61
2022-08-05T04:30:39.360Z,20.61
2022-08-05T04:33:06.248Z,20.58
2022-08-05T04:36:16.780Z,20.61
2022-08-05T04:38:20.600Z,20.61
2022-08-05T04:40:50.871Z,20.56
2022-08-05T04:43:17.982Z,20.56
2022-08-05T04:45:55.047Z,20.48
2022-08-05T04:48:26.994Z,20.49
2022-08-05T04:51:01.682Z,20.50
2022-08-05T04:53:29.685Z,20.48
2022-08-05T04:56:14.530Z,20.49
2022-08-05T04:58:46.646Z,20.25
2022-08-05T05:01:13.525Z,20.35
2022-08-05T05:03:41.771Z,20.28
2022-08-05T05:06:40.753Z,20.33
2022-08-05T05:08:59.252Z,20.27
2022-08-05T05:11:41.492Z,20.25
2022-08-05T05:14:15.235Z,20.32
2022-08-05T05:16:42.859Z,20.28
2022-08-05T05:19:18.727Z,20.25
2022-08-05T05:21:49.995Z,20.24
2022-08-05T05:24:22.124Z,20.21
2022-08-05T05:26:51.852Z,20.15
2022-08-05T05:29:19.009Z,20.14
2022-08-05T05:31:46.521Z,20.21
2022-08-05T05:34:13.317Z,20.03
2022-08-05T05:36:42.128Z,20.09
2022-08-05T05:39:10.897Z,19.99
2022-08-05T05:41:39.968Z,19.93
2022-08-05T05:44:35.761Z,20.01
2022-08-05T05:46:54.011Z,19.95
2022-08-05T05:49:23.372Z,20.05
2022-08-05T05:51:50.657Z,19.92
2022-08-05T05:54:17.476Z,19.87
2022-08-05T05:56:47.330Z,19.87
2022-08-05T05:59:13.935Z,19.80
2022-08-05T06:01:57.298Z,19.97
2022-08-05T06:04:24.821Z,19.89
2022-08-05T06:06:51.372Z,19.93
2022-08-05T06:09:26.720Z,20.03
2022-08-05T06:12:05.228Z,20.00
2022-08-05T06:14:31.757Z,20.04
2022-08-05T06:17:01.878Z,20.02
2022-08-05T06:19:35.318Z,20.00
2022-08-05T06:22:07.323Z,19.91
2022-08-05T06:24:41.037Z,19.96
2022-08-05T06:27:17.159Z,19.95
2022-08-05T06:30:04.354Z,19.76
2022-08-05T06:32:32.626Z,19.90
2022-08-05T06:34:59.631Z,19.87
2022-08-05T06:37:55.818Z,19.98
2022-08-05T06:40:21.088Z,19.93
2022-08-05T06:42:52.252Z,19.94
2022-08-05T06:45:43.861Z,19.89
2022-08-05T06:48:36.497Z,20.03
2022-08-05T06:50:54.047Z,20.03
2022-08-05T06:53:22.393Z,20.13
2022-08-05T06:55:54.267Z,20.13
2022-08-05T06:58:35.237Z,20.08
2022-08-05T07:01:05.396Z,20.09
2022-08-05T07:03:33.270Z,20.08
2022-08-05T07:06:05.877Z,20.11
2022-08-05T07:08:40.687Z,20.19
2022-08-05T07:11:15.478Z,20.12
2022-08-05T07:14:01.502Z,20.09
2022-08-05T07:18:00.227Z,20.13
2022-08-05T07:22:28.559Z,20.18
2022-08-05T07:25:23.870Z,20.14
2022-08-05T07:27:58.773Z,20.20
2022-08-05T07:30:33.660Z,20.16
2022-08-05T07:33:09.983Z,20.23
2022-08-05T07:36:03.191Z,20.30
2022-08-05T07:38:32.814Z,20.24
2022-08-05T07:41:16.683Z,20.20
2022-08-05T07:43:49.449Z,20.26
2022-08-05T07:46:23.476Z,20.31
2022-08-05T07:49:01.587Z,20.33
2022-08-05T07:51:36.794Z,20.33
2022-08-05T07:54:04.962Z,20.37
2022-08-05T07:56:59.865Z,20.50
2022-08-05T07:59:18.085Z,20.44
2022-08-05T08:01:52.475Z,20.50
2022-08-05T08:04:37.559Z,20.43
2022-08-05T08:07:07.253Z,20.47
2022-08-05T08:09:34.871Z,20.51
2022-08-05T08:12:09.049Z,20.48
2022-08-05T08:14:46.598Z,20.46
2022-08-05T08:17:15.995Z,20.50
2022-08-05T08:20:42.980Z,20.51
2022-08-05T08:22:32.316Z,20.61
2022-08-05T08:25:03.429Z,20.62
2022-08-05T08:27:44.731Z,20.78
2022-08-05T08:30:29.879Z,20.71
2022-08-05T08:33:02.733Z,20.70
2022-08-05T08:35:41.635Z,20.65
2022-08-05T08:38:35.987Z,20.72
2022-08-05T08:41:14.119Z,20.76
2022-08-05T08:45:23.786Z,20.81
2022-08-05T08:46:31.007Z,20.80
2022-08-05T08:49:17.383Z,20.78
2022-08-05T08:52:03.772Z,20.82
2022-08-05T08:54:33.721Z,20.81
2022-08-05T08:57:06.135Z,20.77
2022-08-05T08:59:38.820Z,20.89
2022-08-05T09:02:08.894Z,20.88
2022-08-05T09:04:58.497Z,20.88
2022-08-05T09:07:29.043Z,20.88
2022-08-05T09:10:06.251Z,20.83
2022-08-05T09:12:34.286Z,20.90
2022-08-05T09:15:05.651Z,20.70
2022-08-05T09:17:42.661Z,20.73
2022-08-05T09:20:36.633Z,20.66
2022-08-05T09:23:18.460Z,20.67
2022-08-05T09:26:02.659Z,20.64
2022-08-05T09:28:33.567Z,20.65
2022-08-05T09:32:38.671Z,20.70
2022-08-05T09:34:06.910Z,20.68
2022-08-05T09:36:54.095Z,20.84
2022-08-05T09:39:24.386Z,20.98
2022-08-05T09:42:07.847Z,21.11
2022-08-05T09:44:38.716Z,21.28
2022-08-05T09:47:26.078Z,21.38
2022-08-05T09:50:01.996Z,21.24
2022-08-05T09:52:36.112Z,21.26
2022-08-05T09:55:57.697Z,21.36
2022-08-05T09:57:58.702Z,21.50
2022-08-05T10:00:27.837Z,21.65
2022-08-05T10:02:58.662Z,21.76
2022-08-05T10:05:28.128Z,21.72
2022-08-05T10:08:35.778Z,21.62
2022-08-05T10:10:54.327Z,21.57
2022-08-05T10:13:47.670Z,21.56
2022-08-05T10:16:30.132Z,21.65
2022-08-05T10:18:57.332Z,21.69
2022-08-05T10:21:24.587Z,21.69
2022-08-05T10:23:59.345Z,21.73
2022-08-05T10:26:31.756Z,21.84
2022-08-05T10:28:59.420Z,21.92
2022-08-05T10:32:53.842Z,21.85
2022-08-05T10:34:12.720Z,21.95
2022-08-05T10:36:41.596Z,21.97
2022-08-05T10:39:24.214Z,22.02
2022-08-05T10:42:13.184Z,22.06
2022-08-05T10:44:45.041Z,22.08
2022-08-05T10:47:26.248Z,22.12
2022-08-05T10:50:32.563Z,22.12
2022-08-05T10:52:59.748Z,22.22
2022-08-05T10:55:27.407Z,22.17
2022-08-05T10:58:11.362Z,22.25
2022-08-05T11:00:42.218Z,22.39
2022-08-05T11:03:23.735Z,22.25
2022-08-05T11:06:15.179Z,22.36
2022-08-05T11:09:13.157Z,22.36
2022-08-05T11:11:53.378Z,22.34
2022-08-05T11:15:11.642Z,22.34
2022-08-05T11:17:57.343Z,22.39
2022-08-05T11:20:43.734Z,22.46
2022-08-05T11:23:33.167Z,22.49
2022-08-05T11:26:29.288Z,22.60
2022-08-05T11:29:13.537Z,22.62
2022-08-05T11:31:58.293Z,22.68
2022-08-05T11:34:38.573Z,22.63
2022-08-05T11:37:55.129Z,22.61
2022-08-05T11:40:00.818Z,22.60
2022-08-05T11:42:38.009Z,22.59
2022-08-05T11:45:14.242Z,22.56
2022-08-05T11:47:50.622Z,22.49
2022-08-05T11:50:21.149Z,22.45
2022-08-05T11:52:49.618Z,22.51
2022-08-05T11:55:17.712Z,22.47
2022-08-05T11:58:09.680Z,22.39
2022-08-05T12:00:38.012Z,22.32
2022-08-05T12:03:29.010Z,22.33
2022-08-05T12:06:02.223Z,22.35
2022-08-05T12:08:28.760Z,22.46
2022-08-05T12:11:05.738Z,22.48
2022-08-05T12:13:48.828Z,22.55
2022-08-05T12:16:18.935Z,22.45
2022-08-05T12:18:52.355Z,22.53
2022-08-05T12:21:21.016Z,22.43
2022-08-05T12:24:04.870Z,22.42
2022-08-05T12:26:36.235Z,22.23
2022-08-05T12:29:09.904Z,22.30
2022-08-05T12:32:10.940Z,22.25
2022-08-05T12:34:39.070Z,22.29
2022-08-05T12:37:17.638Z,22.30
2022-08-05T12:39:51.557Z,22.36
2022-08-05T12:42:20.078Z,22.44
2022-08-05T12:44:47.523Z,22.57
2022-08-05T12:47:26.558Z,22.64
2022-08-05T12:50:01.975Z,22.57
2022-08-05T12:52:39.598Z,22.51
2022-08-05T12:55:22.363Z,22.75
2022-08-05T12:58:38.855Z,22.83
2022-08-05T13:02:01.664Z,22.86
2022-08-05T13:03:32.428Z,23.04
2022-08-05T13:06:00.187Z,23.05
2022-08-05T13:08:30.179Z,23.18
2022-08-05T13:11:04.350Z,23.31
2022-08-05T13:14:04.905Z,23.51
2022-08-05T13:16:20.154Z,23.75
2022-08-05T13:18:58.924Z,23.73
2022-08-05T13:21:27.832Z,23.78
2022-08-05T13:23:55.447Z,23.58
2022-08-05T13:26:27.204Z,23.54
2022-08-05T13:28:57.069Z,23.82
2022-08-05T13:31:33.758Z,23.86
2022-08-05T13:34:21.306Z,23.99
2022-08-05T13:36:52.142Z,23.82
2022-08-05T13:39:24.706Z,23.78
2022-08-05T13:42:08.081Z,23.76
2022-08-05T13:44:45.049Z,23.94
2022-08-05T13:47:34.715Z,24.16
2022-08-05T13:50:01.010Z,24.16
2022-08-05T13:52:31.455Z,24.07
2022-08-05T13:55:01.964Z,23.85
2022-08-05T13:57:50.810Z,23.87
2022-08-05T14:00:27.135Z,23.73
2022-08-05T14:02:58.320Z,23.76
2022-08-05T14:05:48.084Z,23.77
2022-08-05T14:08:21.086Z,24.00
2022-08-05T14:11:03.197Z,23.93
2022-08-05T14:13:41.446Z,24.07
2022-08-05T14:16:17.142Z,24.37
2022-08-05T14:18:45.826Z,24.34
2022-08-05T14:22:07.295Z,24.53
2022-08-05T14:24:00.575Z,24.47
2022-08-05T14:26:38.765Z,24.51
2022-08-05T14:29:16.347Z,24.35
2022-08-05T14:32:03.520Z,24.42
2022-08-05T14:34:35.230Z,24.28
2022-08-05T14:37:03.708Z,24.13
2022-08-05T14:39:31.356Z,24.01
2022-08-05T14:42:29.224Z,24.21
2022-08-05T14:44:56.566Z,24.49
2022-08-05T14:47:58.505Z,24.57
2022-08-05T14:50:18.233Z,24.43
2022-08-05T14:52:53.563Z,24.21
2022-08-05T14:55:25.015Z,24.49
2022-08-05T14:57:54.870Z,24.77
2022-08-05T15:00:27.929Z,24.73
2022-08-05T15:02:56.558Z,24.95
2022-08-05T15:05:30.059Z,24.64
2022-08-05T15:08:16.883Z,24.43
2022-08-05T15:10:56.906Z,24.14
2022-08-05T15:13:24.031Z,24.01
2022-08-05T15:16:10.940Z,23.73
2022-08-05T15:18:39.729Z,24.09
2022-08-05T15:21:08.609Z,24.21
2022-08-05T15:23:35.267Z,24.32
2022-08-05T15:26:04.684Z,24.21
2022-08-05T15:28:31.208Z,24.19
2022-08-05T15:30:57.773Z,24.33
2022-08-05T15:34:19.452Z,24.17
2022-08-05T15:36:17.237Z,24.59
2022-08-05T15:38:50.693Z,24.73
2022-08-05T15:41:55.837Z,24.79
2022-08-05T15:44:23.668Z,24.64
2022-08-05T15:46:50.723Z,24.47
2022-08-05T15:49:27.285Z,24.56
2022-08-05T15:52:16.121Z,24.60
2022-08-05T15:54:52.898Z,24.77
2022-08-05T15:57:20.619Z,24.91
2022-08-05T15:59:47.163Z,24.91
2022-08-05T16:02:14.381Z,24.84
2022-08-05T16:04:42.144Z,24.94
2022-08-05T16:07:10.563Z,24.86
2022-08-05T16:09:37.480Z,24.76
2022-08-05T16:12:08.442Z,24.74
2022-08-05T16:14:35.062Z,24.51
2022-08-05T16:17:01.559Z,24.21
2022-08-05T16:20:05.130Z,24.17
2022-08-05T16:22:15.827Z,24.21
2022-08-05T16:24:51.281Z,24.16
2022-08-05T16:27:18.924Z,24.37
2022-08-05T16:29:50.905Z,24.13
2022-08-05T16:32:28.747Z,24.46
2022-08-05T16:34:56.719Z,24.33
2022-08-05T16:38:02.656Z,24.26
2022-08-05T16:40:13.510Z,24.34
2022-08-05T16:42:51.625Z,24.66
2022-08-05T16:46:03.987Z,24.49
2022-08-05T16:48:04.862Z,24.46
2022-08-05T16:50:31.418Z,24.57
2022-08-05T16:52:57.965Z,24.48
2022-08-05T16:55:28.246Z,24.59
2022-08-05T16:58:13.147Z,24.60
2022-08-05T17:00:40.861Z,24.78
2022-08-05T17:03:09.239Z,24.55
2022-08-05T17:05:50.275Z,24.77
2022-08-05T17:08:33.375Z,24.84
2022-08-05T17:11:12.791Z,25.25
2022-08-05T17:13:44.447Z,25.27
2022-08-05T17:16:33.606Z,24.99
2022-08-05T17:18:58.255Z,24.84
2022-08-05T17:21:24.745Z,24.89
2022-08-05T17:24:06.069Z,25.06
2022-08-05T17:26:35.994Z,25.14
2022-08-05T17:29:07.386Z,25.02
2022-08-05T17:31:41.368Z,24.79
2022-08-05T17:34:29.952Z,24.66
2022-08-05T17:36:58.994Z,24.59
2022-08-05T17:39:33.437Z,24.39
2022-08-05T17:42:17.766Z,24.62
2022-08-05T17:44:50.450Z,24.34
2022-08-05T17:47:21.987Z,24.23
2022-08-05T17:49:59.899Z,24.13
2022-08-05T17:52:34.872Z,24.05
2022-08-05T17:55:20.871Z,24.19
2022-08-05T17:57:48.579Z,24.11
2022-08-05T18:00:19.377Z,23.87
2022-08-05T18:02:47.227Z,24.01
2022-08-05T18:05:16.997Z,23.79
2022-08-05T18:07:44.504Z,23.87
2022-08-05T18:10:14.155Z,23.91
2022-08-05T18:12:47.498Z,23.80
2022-08-05T18:15:14.302Z,23.54
2022-08-05T18:17:59.491Z,23.33
2022-08-05T18:20:31.983Z,23.11
2022-08-05T18:23:11.288Z,23.02
2022-08-05T18:25:45.126Z,22.97
2022-08-05T18:28:17.417Z,22.95
2022-08-05T18:30:51.491Z,22.95
2022-08-05T18:33:22.964Z,22.76
2022-08-05T18:36:03.629Z,22.67
2022-08-05T18:38:36.243Z,22.57
2022-08-05T18:41:58.476Z,22.46
2022-08-05T18:43:53.897Z,22.44
2022-08-05T18:46:20.846Z,22.42
2022-08-05T18:48:52.093Z,22.36
2022-08-05T18:52:05.819Z,22.33
2022-08-05T18:54:31.389Z,22.36
2022-08-05T18:57:01.744Z,22.04
2022-08-05T18:59:43.495Z,22.07
2022-08-05T19:02:27.778Z,22.00
2022-08-05T19:05:02.057Z,22.05
2022-08-05T19:07:47.678Z,21.74
2022-08-05T19:10:15.484Z,21.58
2022-08-05T19:12:43.106Z,21.68
2022-08-05T19:15:10.594Z,21.51
2022-08-05T19:18:08.124Z,21.82
2022-08-05T19:20:36.710Z,21.74
2022-08-05T19:23:03.388Z,21.63
2022-08-05T19:25:39.045Z,21.64
2022-08-05T19:28:08.991Z,21.56
2022-08-05T19:30:35.656Z,21.48
2022-08-05T19:33:04.392Z,21.41
2022-08-05T19:35:56.505Z,21.59
2022-08-05T19:38:24.092Z,21.56
2022-08-05T19:40:55.939Z,21.55
2022-08-05T19:44:04.178Z,21.60
2022-08-05T19:46:29.594Z,21.45
2022-08-05T19:48:55.468Z,21.43
2022-08-05T19:52:08.711Z,21.49
2022-08-05T19:54:21.602Z,21.26
2022-08-05T19:56:55.183Z,21.39
2022-08-05T20:00:00.421Z,21.10
2022-08-05T20:02:08.343Z,21.27
2022-08-05T20:04:34.973Z,21.12
2022-08-05T20:07:01.981Z,21.04
2022-08-05T20:09:30.842Z,21.12
2022-08-05T20:12:17.387Z,20.99
2022-08-05T20:14:45.456Z,21.01
2022-08-05T20:17:16.228Z,21.01
2022-08-05T20:19:42.934Z,20.94
2022-08-05T20:22:09.743Z,21.00
2022-08-05T20:24:38.711Z,20.68
2022-08-05T20:27:11.252Z,20.78
2022-08-05T20:29:41.014Z,20.79
2022-08-05T20:32:07.687Z,20.63
2022-08-05T20:34:36.796Z,20.67
2022-08-05T20:37:05.380Z,20.70
2022-08-05T20:39:44.596Z,20.66
2022-08-05T20:42:21.906Z,20.57
2022-08-05T20:44:48.424Z,20.52
2022-08-05T20:47:17.719Z,20.56
2022-08-05T20:49:45.650Z,20.42
2022-08-05T20:52:17.905Z,20.45
2022-08-05T20:54:55.266Z,20.38
2022-08-05T20:57:43.230Z,20.36
2022-08-05T21:00:40.351Z,20.50
2022-08-05T21:03:04.576Z,20.33
2022-08-05T21:05:48.214Z,20.08
2022-08-05T21:08:26.921Z,20.07
2022-08-05T21:11:10.270Z,20.14
2022-08-05T21:13:56.120Z,20.09
2022-08-05T21:16:29.509Z,19.93
2022-08-05T21:18:56.828Z,19.75
2022-08-05T21:21:39.379Z,19.77
2022-08-05T21:24:12.812Z,19.86
2022-08-05T21:26:40.201Z,19.77
2022-08-05T21:29:10.158Z,19.81
2022-08-05T21:31:43.163Z,19.89
2022-08-05T21:34:10.528Z,19.62
2022-08-05T21:36:37.431Z,19.62
2022-08-05T21:39:04.059Z,19.64
2022-08-05T21:41:33.970Z,19.56
2022-08-05T21:44:01.848Z,19.68
2022-08-05T21:46:34.524Z,19.57
2022-08-05T21:49:08.063Z,19.62
2022-08-05T21:52:27.402Z,19.52
2022-08-05T21:54:30.948Z,19.41
2022-08-05T21:57:29.739Z,19.47
2022-08-05T22:00:02.974Z,19.30
2022-08-05T22:02:39.987Z,19.31
2022-08-05T22:05:09.231Z,19.25
2022-08-05T22:07:40.052Z,19.26
2022-08-05T22:10:25.483Z,19.14
2022-08-05T22:12:55.079Z,19.08
2022-08-05T22:15:56.669Z,18.95
2022-08-05T22:18:12.196Z,18.92
2022-08-05T22:20:41.075Z,18.90
2022-08-05T22:24:03.359Z,18.83
2022-08-05T22:26:31.151Z,18.76
2022-08-05T22:28:57.711Z,18.69
2022-08-05T22:31:24.820Z,18.62
2022-08-05T22:34:00.953Z,18.55
2022-08-05T22:36:28.578Z,18.65
2022-08-05T22:38:56.097Z,18.46
2022-08-05T22:41:26.504Z,18.63
2022-08-05T22:44:10.103Z,18.46
2022-08-05T22:46:39.780Z,18.35
2022-08-05T22:49:23.192Z,18.32
2022-08-05T22:52:05.105Z,18.21
2022-08-05T22:54:33.427Z,18.28
2022-08-05T22:56:59.957Z,18.17
2022-08-05T22:59:48.503Z,18.16
2022-08-05T23:02:13.714Z,18.12
2022-08-05T23:04:44.012Z,18.00
2022-08-05T23:07:18.264Z,17.90
2022-08-05T23:09:58.256Z,17.87
2022-08-05T23:12:28.914Z,17.91
2022-08-05T23:14:58.707Z,17.89
2022-08-05T23:17:32.877Z,17.81
2022-08-05T23:20:16.297Z,17.82
2022-08-05T23:22:43.467Z,17.84
2022-08-05T23:25:50.065Z,17.68
2022-08-05T23:28:01.054Z,17.67
2022-08-05T23:30:29.048Z,17.65
2022-08-05T23:32:55.783Z,17.64
2022-08-05T23:35:24.308Z,17.60
2022-08-05T23:37:55.291Z,17.57
2022-08-05T23:40:27.157Z,17.45
2022-08-05T23:42:53.995Z,17.32
2022-08-05T23:45:20.851Z,17.29
2022-08-05T23:47:50.448Z,17.29
2022-08-05T23:50:20.646Z,17.07
2022-08-05T23:52:50.028Z,17.00
2022-08-05T23:55:18.863Z,17.08
2022-08-05T23:57:48.888Z,17.05
